sensor_id;sensor_type;location;lat;lon;timestamp;pressure;altitude;pressure_sealevel;temperature;humidity
73297;BME280;61524;50.938;11.396;2022-12-07T00:01:58;98924.19;;;-0.05;100.00
73297;BME280;61524;50.938;11.396;2022-12-07T00:04:23;98926.34;;;-0.08;100.00
73297;BME280;61524;50.938;11.396;2022-12-07T00:06:52;98927.06;;;-0.14;100.00
73297;BME280;61524;50.938;11.396;2022-12-07T00:09:18;98916.66;;;-0.22;100.00
73297;BME280;61524;50.938;11.396;2022-12-07T00:11:48;98915.47;;;-0.35;100.00
73297;BME280;61524;50.938;11.396;2022-12-07T00:14:15;98910.31;;;-0.43;100.00
73297;BME280;61524;50.938;11.396;2022-12-07T00:16:42;98907.41;;;-0.48;100.00
73297;BME280;61524;50.938;11.396;2022-12-07T00:19:10;98906.13;;;-0.52;100.00
73297;BME280;61524;50.938;11.396;2022-12-07T00:21:36;98908.47;;;-0.57;100.00
73297;BME280;61524;50.938;11.396;2022-12-07T00:24:03;98916.63;;;-0.52;100.00
73297;BME280;61524;50.938;11.396;2022-12-07T00:26:32;98903.56;;;-0.60;100.00
73297;BME280;61524;50.938;11.396;2022-12-07T00:29:01;98913.16;;;-0.67;100.00
73297;BME280;61524;50.938;11.396;2022-12-07T00:31:35;98907.91;;;-0.67;100.00
73297;BME280;61524;50.938;11.396;2022-12-07T00:34:04;98902.00;;;-0.84;100.00
73297;BME280;61524;50.938;11.396;2022-12-07T00:36:29;98905.03;;;-0.95;100.00
73297;BME280;61524;50.938;11.396;2022-12-07T00:38:57;98907.84;;;-0.97;100.00
73297;BME280;61524;50.938;11.396;2022-12-07T00:41:24;98907.13;;;-0.91;100.00
73297;BME280;61524;50.938;11.396;2022-12-07T00:43:50;98899.97;;;-0.97;100.00
73297;BME280;61524;50.938;11.396;2022-12-07T00:46:17;98904.25;;;-1.04;100.00
73297;BME280;61524;50.938;11.396;2022-12-07T00:48:43;98892.50;;;-1.08;100.00
73297;BME280;61524;50.938;11.396;2022-12-07T00:51:11;98897.09;;;-1.10;100.00
73297;BME280;61524;50.938;11.396;2022-12-07T00:53:38;98889.94;;;-1.16;100.00
73297;BME280;61524;50.938;11.396;2022-12-07T00:56:08;98899.81;;;-1.18;100.00
73297;BME280;61524;50.938;11.396;2022-12-07T00:58:34;98887.56;;;-1.26;100.00
73297;BME280;61524;50.938;11.396;2022-12-07T01:01:04;98879.06;;;-1.28;100.00
73297;BME280;61524;50.938;11.396;2022-12-07T01:03:30;98880.41;;;-1.32;100.00
73297;BME280;61524;50.938;11.396;2022-12-07T01:05:56;98868.00;;;-1.38;100.00
73297;BME280;61524;50.938;11.396;2022-12-07T01:08:23;98871.13;;;-1.43;100.00
73297;BME280;61524;50.938;11.396;2022-12-07T01:10:56;98873.63;;;-1.49;100.00
73297;BME280;61524;50.938;11.396;2022-12-07T01:13:22;98869.09;;;-1.55;100.00
73297;BME280;61524;50.938;11.396;2022-12-07T01:15:47;98865.00;;;-1.58;100.00
73297;BME280;61524;50.938;11.396;2022-12-07T01:18:13;98864.53;;;-1.62;100.00
73297;BME280;61524;50.938;11.396;2022-12-07T01:20:38;98871.56;;;-1.62;100.00
73297;BME280;61524;50.938;11.396;2022-12-07T01:23:04;98867.97;;;-1.61;100.00
73297;BME280;61524;50.938;11.396;2022-12-07T01:25:30;98861.25;;;-1.55;100.00
73297;BME280;61524;50.938;11.396;2022-12-07T01:27:55;98847.97;;;-1.54;100.00
73297;BME280;61524;50.938;11.396;2022-12-07T01:30:20;98862.03;;;-1.55;100.00
73297;BME280;61524;50.938;11.396;2022-12-07T01:32:46;98858.44;;;-1.54;100.00
73297;BME280;61524;50.938;11.396;2022-12-07T01:35:11;98857.13;;;-1.58;100.00
73297;BME280;61524;50.938;11.396;2022-12-07T01:37:38;98857.66;;;-1.63;100.00
73297;BME280;61524;50.938;11.396;2022-12-07T01:40:06;98861.63;;;-1.67;100.00
73297;BME280;61524;50.938;11.396;2022-12-07T01:42:32;98855.84;;;-1.62;100.00
73297;BME280;61524;50.938;11.396;2022-12-07T01:47:44;98854.81;;;-1.53;100.00
73297;BME280;61524;50.938;11.396;2022-12-07T01:50:12;98857.91;;;-1.49;100.00
73297;BME280;61524;50.938;11.396;2022-12-07T01:52:39;98858.84;;;-1.42;100.00
73297;BME280;61524;50.938;11.396;2022-12-07T01:55:09;98860.44;;;-1.33;100.00
73297;BME280;61524;50.938;11.396;2022-12-07T01:57:40;98853.97;;;-1.22;100.00
73297;BME280;61524;50.938;11.396;2022-12-07T02:00:07;98843.41;;;-1.14;100.00
73297;BME280;61524;50.938;11.396;2022-12-07T02:02:35;98850.03;;;-1.03;100.00
73297;BME280;61524;50.938;11.396;2022-12-07T02:05:04;98835.06;;;-0.95;100.00
73297;BME280;61524;50.938;11.396;2022-12-07T02:07:31;98821.22;;;-0.89;100.00
73297;BME280;61524;50.938;11.396;2022-12-07T02:09:57;98826.03;;;-0.77;100.00
73297;BME280;61524;50.938;11.396;2022-12-07T02:12:36;98823.69;;;-0.72;100.00
73297;BME280;61524;50.938;11.396;2022-12-07T02:15:02;98810.94;;;-0.61;100.00
73297;BME280;61524;50.938;11.396;2022-12-07T02:20:26;98822.53;;;-0.25;100.00
73297;BME280;61524;50.938;11.396;2022-12-07T02:31:15;98808.28;;;-0.16;100.00
73297;BME280;61524;50.938;11.396;2022-12-07T02:33:48;98808.75;;;-0.13;100.00
73297;BME280;61524;50.938;11.396;2022-12-07T02:36:26;98809.47;;;-0.19;100.00
73297;BME280;61524;50.938;11.396;2022-12-07T02:39:03;98810.91;;;-0.16;100.00
73297;BME280;61524;50.938;11.396;2022-12-07T02:41:36;98809.81;;;-0.07;100.00
73297;BME280;61524;50.938;11.396;2022-12-07T02:44:12;98805.38;;;-0.07;100.00
73297;BME280;61524;50.938;11.396;2022-12-07T02:46:51;98805.84;;;-0.03;100.00
73297;BME280;61524;50.938;11.396;2022-12-07T02:49:18;98800.28;;;0.07;100.00
73297;BME280;61524;50.938;11.396;2022-12-07T02:51:45;98791.41;;;0.08;100.00
73297;BME280;61524;50.938;11.396;2022-12-07T02:54:13;98791.03;;;0.11;100.00
73297;BME280;61524;50.938;11.396;2022-12-07T02:57:28;98795.13;;;0.13;100.00
73297;BME280;61524;50.938;11.396;2022-12-07T03:02:38;98786.00;;;0.31;100.00
73297;BME280;61524;50.938;11.396;2022-12-07T03:05:15;98780.53;;;0.32;100.00
73297;BME280;61524;50.938;11.396;2022-12-07T03:10:46;98776.75;;;0.35;100.00
73297;BME280;61524;50.938;11.396;2022-12-07T03:18:49;98783.75;;;0.49;100.00
73297;BME280;61524;50.938;11.396;2022-12-07T03:21:25;98778.25;;;0.44;100.00
73297;BME280;61524;50.938;11.396;2022-12-07T03:23:54;98781.13;;;0.49;100.00
73297;BME280;61524;50.938;11.396;2022-12-07T03:26:26;98783.13;;;0.47;100.00
73297;BME280;61524;50.938;11.396;2022-12-07T03:28:55;98776.28;;;0.52;100.00
73297;BME280;61524;50.938;11.396;2022-12-07T03:31:28;98766.72;;;0.45;100.00
73297;BME280;61524;50.938;11.396;2022-12-07T03:34:11;98769.91;;;0.40;100.00
73297;BME280;61524;50.938;11.396;2022-12-07T03:36:52;98762.84;;;0.41;100.00
73297;BME280;61524;50.938;11.396;2022-12-07T03:39:39;98768.66;;;0.36;100.00
73297;BME280;61524;50.938;11.396;2022-12-07T03:42:07;98759.78;;;0.37;100.00
73297;BME280;61524;50.938;11.396;2022-12-07T03:44:34;98756.59;;;0.42;100.00
73297;BME280;61524;50.938;11.396;2022-12-07T03:47:04;98752.91;;;0.36;100.00
73297;BME280;61524;50.938;11.396;2022-12-07T03:49:53;98750.91;;;0.38;100.00
73297;BME280;61524;50.938;11.396;2022-12-07T03:52:30;98760.78;;;0.36;100.00
73297;BME280;61524;50.938;11.396;2022-12-07T03:57:55;98748.91;;;0.40;100.00
73297;BME280;61524;50.938;11.396;2022-12-07T04:00:22;98754.97;;;0.41;100.00
73297;BME280;61524;50.938;11.396;2022-12-07T04:02:51;98766.47;;;0.40;100.00
73297;BME280;61524;50.938;11.396;2022-12-07T04:05:17;98766.47;;;0.40;100.00
73297;BME280;61524;50.938;11.396;2022-12-07T04:07:43;98755.72;;;0.35;100.00
73297;BME280;61524;50.938;11.396;2022-12-07T04:10:09;98767.78;;;0.29;100.00
73297;BME280;61524;50.938;11.396;2022-12-07T04:12:34;98760.84;;;0.21;100.00
73297;BME280;61524;50.938;11.396;2022-12-07T04:15:00;98758.59;;;0.18;100.00
73297;BME280;61524;50.938;11.396;2022-12-07T04:17:25;98781.25;;;0.05;100.00
73297;BME280;61524;50.938;11.396;2022-12-07T04:19:50;98766.31;;;0.05;100.00
73297;BME280;61524;50.938;11.396;2022-12-07T04:22:16;98761.66;;;0.01;100.00
73297;BME280;61524;50.938;11.396;2022-12-07T04:24:41;98768.31;;;0.03;100.00
73297;BME280;61524;50.938;11.396;2022-12-07T04:27:07;98769.66;;;0.14;100.00
73297;BME280;61524;50.938;11.396;2022-12-07T04:29:32;98761.78;;;0.14;100.00
73297;BME280;61524;50.938;11.396;2022-12-07T04:31:58;98766.22;;;0.13;100.00
73297;BME280;61524;50.938;11.396;2022-12-07T04:34:23;98756.72;;;0.12;100.00
73297;BME280;61524;50.938;11.396;2022-12-07T04:36:49;98751.47;;;0.12;100.00
73297;BME280;61524;50.938;11.396;2022-12-07T04:39:26;98743.84;;;0.17;100.00
73297;BME280;61524;50.938;11.396;2022-12-07T04:41:52;98759.66;;;0.24;100.00
73297;BME280;61524;50.938;11.396;2022-12-07T04:44:19;98755.84;;;0.26;100.00
73297;BME280;61524;50.938;11.396;2022-12-07T04:46:44;98747.78;;;0.28;100.00
73297;BME280;61524;50.938;11.396;2022-12-07T04:49:11;98745.16;;;0.28;100.00
73297;BME280;61524;50.938;11.396;2022-12-07T04:51:37;98740.97;;;0.34;100.00
73297;BME280;61524;50.938;11.396;2022-12-07T04:54:03;98748.84;;;0.34;100.00
73297;BME280;61524;50.938;11.396;2022-12-07T04:56:28;98739.75;;;0.36;100.00
73297;BME280;61524;50.938;11.396;2022-12-07T04:58:54;98752.53;;;0.39;100.00
73297;BME280;61524;50.938;11.396;2022-12-07T05:01:20;98745.00;;;0.36;100.00
73297;BME280;61524;50.938;11.396;2022-12-07T05:03:46;98753.78;;;0.43;100.00
73297;BME280;61524;50.938;11.396;2022-12-07T05:06:12;98748.94;;;0.47;100.00
73297;BME280;61524;50.938;11.396;2022-12-07T05:08:38;98725.31;;;0.47;100.00
73297;BME280;61524;50.938;11.396;2022-12-07T05:11:05;98741.13;;;0.53;100.00
73297;BME280;61524;50.938;11.396;2022-12-07T05:13:31;98738.50;;;0.53;100.00
73297;BME280;61524;50.938;11.396;2022-12-07T05:15:57;98740.94;;;0.55;100.00
73297;BME280;61524;50.938;11.396;2022-12-07T05:18:23;98738.75;;;0.59;100.00
73297;BME280;61524;50.938;11.396;2022-12-07T05:20:49;98738.81;;;0.65;100.00
73297;BME280;61524;50.938;11.396;2022-12-07T05:23:16;98741.63;;;0.64;100.00
73297;BME280;61524;50.938;11.396;2022-12-07T05:25:41;98735.53;;;0.63;100.00
73297;BME280;61524;50.938;11.396;2022-12-07T05:28:07;98735.78;;;0.68;100.00
73297;BME280;61524;50.938;11.396;2022-12-07T05:30:32;98728.53;;;0.70;100.00
73297;BME280;61524;50.938;11.396;2022-12-07T05:32:58;98726.16;;;0.75;100.00
73297;BME280;61524;50.938;11.396;2022-12-07T05:35:23;98732.38;;;0.74;100.00
73297;BME280;61524;50.938;11.396;2022-12-07T05:37:49;98725.16;;;0.76;100.00
73297;BME280;61524;50.938;11.396;2022-12-07T05:40:15;98732.22;;;0.76;100.00
73297;BME280;61524;50.938;11.396;2022-12-07T05:42:41;98739.91;;;0.77;100.00
73297;BME280;61524;50.938;11.396;2022-12-07T05:45:07;98734.09;;;0.82;100.00
73297;BME280;61524;50.938;11.396;2022-12-07T05:47:33;98736.88;;;0.81;100.00
73297;BME280;61524;50.938;11.396;2022-12-07T05:49:58;98741.78;;;0.84;100.00
73297;BME280;61524;50.938;11.396;2022-12-07T05:52:24;98743.63;;;0.90;100.00
73297;BME280;61524;50.938;11.396;2022-12-07T05:54:49;98737.19;;;0.92;100.00
73297;BME280;61524;50.938;11.396;2022-12-07T05:57:15;98742.44;;;0.92;100.00
73297;BME280;61524;50.938;11.396;2022-12-07T05:59:40;98736.19;;;0.93;100.00
73297;BME280;61524;50.938;11.396;2022-12-07T06:02:08;98742.88;;;0.96;100.00
73297;BME280;61524;50.938;11.396;2022-12-07T06:04:37;98737.25;;;1.05;100.00
73297;BME280;61524;50.938;11.396;2022-12-07T06:07:04;98735.31;;;1.14;100.00
73297;BME280;61524;50.938;11.396;2022-12-07T06:09:29;98727.25;;;1.22;100.00
73297;BME280;61524;50.938;11.396;2022-12-07T06:11:56;98738.41;;;1.24;100.00
73297;BME280;61524;50.938;11.396;2022-12-07T06:14:40;98743.72;;;1.38;100.00
73297;BME280;61524;50.938;11.396;2022-12-07T06:17:06;98744.19;;;1.48;100.00
73297;BME280;61524;50.938;11.396;2022-12-07T06:19:32;98745.16;;;1.40;100.00
73297;BME280;61524;50.938;11.396;2022-12-07T06:21:58;98743.97;;;1.43;100.00
73297;BME280;61524;50.938;11.396;2022-12-07T06:24:23;98745.19;;;1.47;100.00
73297;BME280;61524;50.938;11.396;2022-12-07T06:26:49;98749.25;;;1.49;100.00
73297;BME280;61524;50.938;11.396;2022-12-07T06:29:18;98751.06;;;1.49;100.00
73297;BME280;61524;50.938;11.396;2022-12-07T06:31:43;98744.78;;;1.50;100.00
73297;BME280;61524;50.938;11.396;2022-12-07T06:34:12;98746.00;;;1.47;100.00
73297;BME280;61524;50.938;11.396;2022-12-07T06:36:38;98738.91;;;1.48;100.00
73297;BME280;61524;50.938;11.396;2022-12-07T06:39:04;98749.22;;;1.43;100.00
73297;BME280;61524;50.938;11.396;2022-12-07T06:41:30;98748.41;;;1.42;100.00
73297;BME280;61524;50.938;11.396;2022-12-07T06:43:56;98753.41;;;1.30;100.00
73297;BME280;61524;50.938;11.396;2022-12-07T06:46:22;98762.31;;;1.29;100.00
73297;BME280;61524;50.938;11.396;2022-12-07T06:48:47;98754.81;;;1.26;100.00
73297;BME280;61524;50.938;11.396;2022-12-07T06:51:13;98761.47;;;1.29;100.00
73297;BME280;61524;50.938;11.396;2022-12-07T06:53:38;98760.53;;;1.37;100.00
73297;BME280;61524;50.938;11.396;2022-12-07T06:56:04;98775.53;;;1.43;100.00
73297;BME280;61524;50.938;11.396;2022-12-07T06:58:30;98760.34;;;1.45;100.00
73297;BME280;61524;50.938;11.396;2022-12-07T07:00:55;98762.00;;;1.46;100.00
73297;BME280;61524;50.938;11.396;2022-12-07T07:03:21;98773.50;;;1.45;100.00
73297;BME280;61524;50.938;11.396;2022-12-07T07:05:47;98762.81;;;1.46;100.00
73297;BME280;61524;50.938;11.396;2022-12-07T07:08:13;98758.72;;;1.44;100.00
73297;BME280;61524;50.938;11.396;2022-12-07T07:10:39;98772.31;;;1.41;100.00
73297;BME280;61524;50.938;11.396;2022-12-07T07:13:04;98763.59;;;1.40;100.00
73297;BME280;61524;50.938;11.396;2022-12-07T07:15:31;98771.84;;;1.30;100.00
73297;BME280;61524;50.938;11.396;2022-12-07T07:17:57;98778.84;;;1.23;100.00
73297;BME280;61524;50.938;11.396;2022-12-07T07:20:23;98780.63;;;1.16;100.00
73297;BME280;61524;50.938;11.396;2022-12-07T07:22:49;98773.28;;;1.05;100.00
73297;BME280;61524;50.938;11.396;2022-12-07T07:25:15;98774.94;;;1.13;100.00
73297;BME280;61524;50.938;11.396;2022-12-07T07:27:40;98775.13;;;1.11;100.00
73297;BME280;61524;50.938;11.396;2022-12-07T07:30:06;98773.72;;;1.09;100.00
73297;BME280;61524;50.938;11.396;2022-12-07T07:32:32;98772.47;;;1.04;100.00
73297;BME280;61524;50.938;11.396;2022-12-07T07:34:57;98771.03;;;1.02;100.00
73297;BME280;61524;50.938;11.396;2022-12-07T07:37:23;98768.38;;;1.02;100.00
73297;BME280;61524;50.938;11.396;2022-12-07T07:39:49;98769.81;;;0.98;100.00
73297;BME280;61524;50.938;11.396;2022-12-07T07:42:14;98767.59;;;1.01;100.00
73297;BME280;61524;50.938;11.396;2022-12-07T07:44:40;98772.50;;;1.11;100.00
73297;BME280;61524;50.938;11.396;2022-12-07T07:47:06;98774.38;;;1.17;100.00
73297;BME280;61524;50.938;11.396;2022-12-07T07:49:31;98769.75;;;1.19;100.00
73297;BME280;61524;50.938;11.396;2022-12-07T07:51:56;98768.72;;;1.20;100.00
73297;BME280;61524;50.938;11.396;2022-12-07T07:54:22;98769.34;;;1.22;100.00
73297;BME280;61524;50.938;11.396;2022-12-07T07:56:47;98772.94;;;1.15;100.00
73297;BME280;61524;50.938;11.396;2022-12-07T07:59:14;98772.19;;;1.21;100.00
73297;BME280;61524;50.938;11.396;2022-12-07T08:01:40;98770.00;;;1.31;100.00
73297;BME280;61524;50.938;11.396;2022-12-07T08:04:05;98762.00;;;1.46;100.00
73297;BME280;61524;50.938;11.396;2022-12-07T08:06:31;98779.88;;;1.57;100.00
73297;BME280;61524;50.938;11.396;2022-12-07T08:08:56;98771.81;;;1.65;100.00
73297;BME280;61524;50.938;11.396;2022-12-07T08:11:23;98775.06;;;1.67;100.00
73297;BME280;61524;50.938;11.396;2022-12-07T08:13:48;98775.47;;;1.71;100.00
73297;BME280;61524;50.938;11.396;2022-12-07T08:16:14;98763.13;;;1.71;100.00
73297;BME280;61524;50.938;11.396;2022-12-07T08:18:41;98779.56;;;1.73;100.00
73297;BME280;61524;50.938;11.396;2022-12-07T08:21:08;98765.78;;;1.78;100.00
73297;BME280;61524;50.938;11.396;2022-12-07T08:23:35;98778.13;;;1.77;100.00
73297;BME280;61524;50.938;11.396;2022-12-07T08:26:02;98773.88;;;1.76;100.00
73297;BME280;61524;50.938;11.396;2022-12-07T08:28:29;98778.31;;;1.76;100.00
73297;BME280;61524;50.938;11.396;2022-12-07T08:31:03;98771.25;;;1.76;100.00
73297;BME280;61524;50.938;11.396;2022-12-07T08:33:28;98771.66;;;1.80;100.00
73297;BME280;61524;50.938;11.396;2022-12-07T08:35:54;98778.75;;;1.79;100.00
73297;BME280;61524;50.938;11.396;2022-12-07T08:38:19;98776.13;;;1.79;100.00
73297;BME280;61524;50.938;11.396;2022-12-07T08:40:52;98772.94;;;1.91;100.00
73297;BME280;61524;50.938;11.396;2022-12-07T08:43:18;98773.56;;;1.99;100.00
73297;BME280;61524;50.938;11.396;2022-12-07T08:45:43;98772.56;;;2.07;100.00
73297;BME280;61524;50.938;11.396;2022-12-07T08:48:11;98765.69;;;2.13;100.00
73297;BME280;61524;50.938;11.396;2022-12-07T08:50:38;98790.81;;;2.15;100.00
73297;BME280;61524;50.938;11.396;2022-12-07T08:53:05;98767.31;;;2.20;100.00
73297;BME280;61524;50.938;11.396;2022-12-07T08:55:31;98771.22;;;2.38;100.00
73297;BME280;61524;50.938;11.396;2022-12-07T08:57:58;98774.25;;;2.41;100.00
73297;BME280;61524;50.938;11.396;2022-12-07T09:00:25;98770.00;;;2.40;100.00
73297;BME280;61524;50.938;11.396;2022-12-07T09:02:51;98779.53;;;2.41;100.00
73297;BME280;61524;50.938;11.396;2022-12-07T09:05:17;98776.50;;;2.44;100.00
73297;BME280;61524;50.938;11.396;2022-12-07T09:07:45;98771.03;;;2.46;100.00
73297;BME280;61524;50.938;11.396;2022-12-07T09:10:11;98773.66;;;2.46;99.93
73297;BME280;61524;50.938;11.396;2022-12-07T09:12:37;98783.41;;;2.52;100.00
73297;BME280;61524;50.938;11.396;2022-12-07T09:15:03;98773.47;;;2.54;100.00
73297;BME280;61524;50.938;11.396;2022-12-07T09:17:32;98785.88;;;2.60;100.00
73297;BME280;61524;50.938;11.396;2022-12-07T09:19:57;98778.34;;;2.57;100.00
73297;BME280;61524;50.938;11.396;2022-12-07T09:22:22;98772.25;;;2.63;100.00
73297;BME280;61524;50.938;11.396;2022-12-07T09:24:48;98768.22;;;2.67;99.95
73297;BME280;61524;50.938;11.396;2022-12-07T09:27:13;98767.41;;;2.67;100.00
73297;BME280;61524;50.938;11.396;2022-12-07T09:29:39;98773.91;;;2.64;99.99
73297;BME280;61524;50.938;11.396;2022-12-07T09:32:04;98772.47;;;2.55;99.26
73297;BME280;61524;50.938;11.396;2022-12-07T09:34:31;98777.75;;;2.61;100.00
73297;BME280;61524;50.938;11.396;2022-12-07T09:36:57;98783.63;;;2.70;99.00
73297;BME280;61524;50.938;11.396;2022-12-07T09:39:22;98785.03;;;2.79;98.48
73297;BME280;61524;50.938;11.396;2022-12-07T09:41:48;98768.00;;;2.88;98.41
73297;BME280;61524;50.938;11.396;2022-12-07T09:44:33;98774.31;;;3.07;97.28
73297;BME280;61524;50.938;11.396;2022-12-07T09:46:59;98767.34;;;3.26;97.24
73297;BME280;61524;50.938;11.396;2022-12-07T09:49:28;98769.78;;;3.34;96.54
73297;BME280;61524;50.938;11.396;2022-12-07T09:52:42;98767.34;;;3.26;95.50
73297;BME280;61524;50.938;11.396;2022-12-07T09:54:50;98754.19;;;3.20;96.15
73297;BME280;61524;50.938;11.396;2022-12-07T09:57:15;98759.69;;;3.18;96.31
73297;BME280;61524;50.938;11.396;2022-12-07T09:59:41;98749.13;;;3.18;94.73
73297;BME280;61524;50.938;11.396;2022-12-07T10:03:13;98757.44;;;3.28;94.92
73297;BME280;61524;50.938;11.396;2022-12-07T10:06:00;98747.66;;;3.29;94.51
73297;BME280;61524;50.938;11.396;2022-12-07T10:08:26;98747.88;;;3.34;94.04
73297;BME280;61524;50.938;11.396;2022-12-07T10:10:54;98736.91;;;3.30;93.73
73297;BME280;61524;50.938;11.396;2022-12-07T10:13:33;98744.84;;;3.24;93.80
73297;BME280;61524;50.938;11.396;2022-12-07T10:15:58;98742.56;;;3.27;94.91
73297;BME280;61524;50.938;11.396;2022-12-07T10:23:30;98744.63;;;3.12;94.97
73297;BME280;61524;50.938;11.396;2022-12-07T10:25:56;98749.91;;;3.25;95.58
73297;BME280;61524;50.938;11.396;2022-12-07T10:28:21;98763.28;;;3.30;94.36
73297;BME280;61524;50.938;11.396;2022-12-07T10:31:15;98752.72;;;3.30;94.92
73297;BME280;61524;50.938;11.396;2022-12-07T10:33:57;98746.25;;;3.26;94.74
73297;BME280;61524;50.938;11.396;2022-12-07T10:36:27;98757.44;;;3.28;94.55
73297;BME280;61524;50.938;11.396;2022-12-07T10:39:01;98745.22;;;3.34;94.83
73297;BME280;61524;50.938;11.396;2022-12-07T10:41:27;98743.41;;;3.21;94.09
73297;BME280;61524;50.938;11.396;2022-12-07T10:43:54;98748.47;;;3.23;93.77
73297;BME280;61524;50.938;11.396;2022-12-07T10:46:41;98745.22;;;3.27;93.70
73297;BME280;61524;50.938;11.396;2022-12-07T10:54:54;98739.38;;;3.05;93.21
73297;BME280;61524;50.938;11.396;2022-12-07T10:57:51;98738.59;;;2.98;93.81
73297;BME280;61524;50.938;11.396;2022-12-07T11:00:25;98737.13;;;3.09;94.21
73297;BME280;61524;50.938;11.396;2022-12-07T11:03:23;98735.91;;;3.18;94.29
73297;BME280;61524;50.938;11.396;2022-12-07T11:06:10;98725.34;;;3.25;93.69
73297;BME280;61524;50.938;11.396;2022-12-07T11:12:01;98727.47;;;3.54;92.91
73297;BME280;61524;50.938;11.396;2022-12-07T11:17:09;98723.50;;;3.83;91.18
73297;BME280;61524;50.938;11.396;2022-12-07T11:27:30;98728.16;;;3.81;91.37
73297;BME280;61524;50.938;11.396;2022-12-07T11:30:01;98732.38;;;3.51;90.67
73297;BME280;61524;50.938;11.396;2022-12-07T11:38:14;98716.69;;;3.62;90.68
73297;BME280;61524;50.938;11.396;2022-12-07T11:40:43;98722.19;;;3.61;90.12
73297;BME280;61524;50.938;11.396;2022-12-07T11:43:20;98725.13;;;3.84;89.61
73297;BME280;61524;50.938;11.396;2022-12-07T11:45:52;98722.38;;;4.04;89.36
73297;BME280;61524;50.938;11.396;2022-12-07T11:48:31;98724.03;;;3.99;88.23
73297;BME280;61524;50.938;11.396;2022-12-07T11:51:00;98717.72;;;4.00;89.05
73297;BME280;61524;50.938;11.396;2022-12-07T11:53:32;98718.97;;;3.90;89.18
73297;BME280;61524;50.938;11.396;2022-12-07T11:56:06;98726.91;;;3.90;89.48
73297;BME280;61524;50.938;11.396;2022-12-07T12:01:58;98709.97;;;3.98;91.19
73297;BME280;61524;50.938;11.396;2022-12-07T12:04:45;98706.25;;;3.74;90.28
73297;BME280;61524;50.938;11.396;2022-12-07T12:07:17;98706.06;;;3.69;90.37
73297;BME280;61524;50.938;11.396;2022-12-07T12:10:00;98720.97;;;3.57;89.19
73297;BME280;61524;50.938;11.396;2022-12-07T12:12:40;98709.78;;;3.55;89.58
73297;BME280;61524;50.938;11.396;2022-12-07T12:15:35;98694.78;;;3.49;89.58
73297;BME280;61524;50.938;11.396;2022-12-07T12:18:21;98703.53;;;3.42;92.20
73297;BME280;61524;50.938;11.396;2022-12-07T12:21:12;98700.34;;;3.27;92.93
73297;BME280;61524;50.938;11.396;2022-12-07T12:26:16;98692.22;;;3.22;94.97
73297;BME280;61524;50.938;11.396;2022-12-07T12:28:56;98680.06;;;3.21;95.45
73297;BME280;61524;50.938;11.396;2022-12-07T12:33:57;98689.00;;;3.20;95.89
73297;BME280;61524;50.938;11.396;2022-12-07T12:36:42;98695.53;;;3.18;96.43
73297;BME280;61524;50.938;11.396;2022-12-07T12:39:10;98696.97;;;3.07;96.93
73297;BME280;61524;50.938;11.396;2022-12-07T12:46:54;98711.22;;;2.59;99.92
73297;BME280;61524;50.938;11.396;2022-12-07T12:51:47;98714.91;;;1.77;100.00
73297;BME280;61524;50.938;11.396;2022-12-07T12:54:32;98714.50;;;1.67;100.00
73297;BME280;61524;50.938;11.396;2022-12-07T12:59:33;98706.56;;;1.61;100.00
73297;BME280;61524;50.938;11.396;2022-12-07T13:13:25;98681.16;;;1.94;100.00
73297;BME280;61524;50.938;11.396;2022-12-07T13:15:54;98677.72;;;2.00;100.00
73297;BME280;61524;50.938;11.396;2022-12-07T13:28:26;98672.28;;;2.28;100.00
73297;BME280;61524;50.938;11.396;2022-12-07T13:31:04;98680.78;;;2.24;100.00
73297;BME280;61524;50.938;11.396;2022-12-07T13:33:35;98670.25;;;2.17;100.00
73297;BME280;61524;50.938;11.396;2022-12-07T13:36:01;98676.91;;;2.13;100.00
73297;BME280;61524;50.938;11.396;2022-12-07T13:38:31;98668.41;;;2.11;100.00
73297;BME280;61524;50.938;11.396;2022-12-07T13:41:16;98660.09;;;2.14;100.00
73297;BME280;61524;50.938;11.396;2022-12-07T13:44:05;98667.81;;;2.16;99.46
73297;BME280;61524;50.938;11.396;2022-12-07T13:49:30;98663.94;;;2.05;99.15
73297;BME280;61524;50.938;11.396;2022-12-07T13:54:49;98658.47;;;2.06;99.11
73297;BME280;61524;50.938;11.396;2022-12-07T13:57:20;98665.56;;;2.06;99.56
73297;BME280;61524;50.938;11.396;2022-12-07T13:59:45;98668.00;;;2.07;99.37
73297;BME280;61524;50.938;11.396;2022-12-07T14:04:49;98662.94;;;2.06;98.78
73297;BME280;61524;50.938;11.396;2022-12-07T14:07:25;98672.66;;;2.12;97.20
73297;BME280;61524;50.938;11.396;2022-12-07T14:10:03;98671.00;;;2.04;97.97
73297;BME280;61524;50.938;11.396;2022-12-07T14:12:30;98669.19;;;1.98;98.20
73297;BME280;61524;50.938;11.396;2022-12-07T14:14:56;98667.16;;;1.94;98.44
73297;BME280;61524;50.938;11.396;2022-12-07T14:17:24;98668.16;;;1.93;98.57
73297;BME280;61524;50.938;11.396;2022-12-07T14:19:53;98673.00;;;1.82;99.90
73297;BME280;61524;50.938;11.396;2022-12-07T14:25:27;98664.66;;;1.66;99.60
73297;BME280;61524;50.938;11.396;2022-12-07T14:27:56;98657.34;;;1.61;100.00
73297;BME280;61524;50.938;11.396;2022-12-07T14:30:30;98658.97;;;1.55;100.00
73297;BME280;61524;50.938;11.396;2022-12-07T14:33:00;98655.13;;;1.58;100.00
73297;BME280;61524;50.938;11.396;2022-12-07T14:35:26;98651.69;;;1.57;100.00
73297;BME280;61524;50.938;11.396;2022-12-07T14:37:53;98649.84;;;1.51;100.00
73297;BME280;61524;50.938;11.396;2022-12-07T14:40:20;98648.22;;;1.50;100.00
73297;BME280;61524;50.938;11.396;2022-12-07T14:42:47;98653.69;;;1.49;100.00
73297;BME280;61524;50.938;11.396;2022-12-07T14:45:19;98647.00;;;1.46;100.00
73297;BME280;61524;50.938;11.396;2022-12-07T14:47:46;98646.59;;;1.49;100.00
73297;BME280;61524;50.938;11.396;2022-12-07T14:50:13;98634.66;;;1.53;100.00
73297;BME280;61524;50.938;11.396;2022-12-07T14:52:40;98628.19;;;1.56;100.00